createdAt,value
2022-10-22T00:00:16.868Z,87.44
2022-10-22T00:02:46.648Z,87.53
2022-10-22T00:05:15.715Z,87.37
2022-10-22T00:07:48.065Z,87.50
2022-10-22T00:10:17.741Z,87.44
2022-10-22T00:12:49.501Z,87.45
2022-10-22T00:15:21.546Z,87.41
2022-10-22T00:17:50.276Z,87.51
2022-10-22T00:20:19.079Z,87.48
2022-10-22T00:22:48.150Z,87.64
2022-10-22T00:25:17.275Z,87.88
2022-10-22T00:27:48.091Z,87.92
2022-10-22T00:30:17.130Z,87.82
2022-10-22T00:32:48.888Z,88.00
2022-10-22T00:35:17.794Z,88.08
2022-10-22T00:37:46.497Z,87.98
2022-10-22T00:40:15.310Z,87.93
2022-10-22T00:42:44.670Z,88.12
2022-10-22T00:45:24.141Z,88.16
2022-10-22T00:48:00.177Z,88.21
2022-10-22T00:50:35.199Z,88.20
2022-10-22T00:53:09.809Z,88.17
2022-10-22T00:55:43.828Z,87.95
2022-10-22T00:58:14.987Z,88.35
2022-10-22T01:00:45.930Z,88.39
2022-10-22T01:03:15.724Z,88.35
2022-10-22T01:05:53.520Z,88.07
2022-10-22T01:08:30.039Z,88.08
2022-10-22T01:11:15.318Z,88.29
2022-10-22T01:13:56.968Z,88.34
2022-10-22T01:16:38.780Z,88.45
2022-10-22T01:19:31.587Z,88.49
2022-10-22T01:22:10.436Z,88.31
2022-10-22T01:24:57.397Z,88.34
2022-10-22T01:27:41.254Z,88.50
2022-10-22T01:30:15.344Z,88.82
2022-10-22T01:32:50.156Z,88.78
2022-10-22T01:35:24.992Z,88.54
2022-10-22T01:38:00.280Z,88.39
2022-10-22T01:40:30.275Z,88.38
2022-10-22T01:43:01.195Z,88.29
2022-10-22T01:45:37.066Z,88.39
2022-10-22T01:48:27.158Z,88.53
2022-10-22T01:51:32.909Z,88.71
2022-10-22T01:54:13.327Z,88.85
2022-10-22T01:56:57.940Z,88.80
2022-10-22T01:59:42.436Z,88.85
2022-10-22T02:02:27.113Z,88.79
2022-10-22T02:05:02.278Z,88.73
2022-10-22T02:07:39.396Z,88.77
2022-10-22T02:10:12.006Z,88.74
2022-10-22T02:12:44.870Z,88.80
2022-10-22T02:15:38.043Z,88.89
2022-10-22T02:18:11.083Z,88.90
2022-10-22T02:20:43.730Z,88.73
2022-10-22T02:23:13.654Z,88.68
2022-10-22T02:25:48.811Z,88.69
2022-10-22T02:28:28.418Z,88.68
2022-10-22T02:31:04.912Z,88.52
2022-10-22T02:33:40.121Z,88.32
2022-10-22T02:36:10.782Z,88.51
2022-10-22T02:38:41.775Z,88.26
2022-10-22T02:41:11.053Z,88.29
2022-10-22T02:43:45.016Z,88.30
2022-10-22T02:46:13.944Z,88.43
2022-10-22T02:48:44.125Z,88.29
2022-10-22T02:51:12.954Z,88.22
2022-10-22T02:53:41.802Z,88.19
2022-10-22T02:56:10.745Z,88.22
2022-10-22T02:58:39.610Z,88.25
2022-10-22T03:01:10.308Z,88.22
2022-10-22T03:03:41.157Z,88.03
2022-10-22T03:06:11.589Z,88.16
2022-10-22T03:08:40.462Z,88.02
2022-10-22T03:11:09.229Z,87.94
2022-10-22T03:13:38.031Z,88.07
2022-10-22T03:16:08.006Z,88.29
2022-10-22T03:18:37.256Z,88.22
2022-10-22T03:21:15.604Z,88.20
2022-10-22T03:23:45.203Z,88.43
2022-10-22T03:26:16.272Z,88.34
2022-10-22T03:28:46.855Z,88.58
2022-10-22T03:31:15.620Z,88.40
2022-10-22T03:33:44.372Z,88.63
2022-10-22T03:36:14.836Z,88.48
2022-10-22T03:38:43.868Z,88.28
2022-10-22T03:41:13.117Z,88.35
2022-10-22T03:43:42.264Z,88.41
2022-10-22T03:46:11.111Z,88.33
2022-10-22T03:48:39.823Z,88.29
2022-10-22T03:51:09.258Z,88.31
2022-10-22T03:53:39.581Z,88.28
2022-10-22T03:56:11.425Z,88.29
2022-10-22T03:58:42.570Z,88.22
2022-10-22T04:01:14.224Z,88.33
2022-10-22T04:03:43.272Z,88.33
2022-10-22T04:06:14.033Z,88.13
2022-10-22T04:08:46.174Z,88.18
2022-10-22T04:11:16.212Z,88.20
2022-10-22T04:13:45.998Z,88.43
2022-10-22T04:16:18.170Z,88.24
2022-10-22T04:18:49.883Z,88.31
2022-10-22T04:21:20.869Z,88.39
2022-10-22T04:23:53.965Z,88.56
2022-10-22T04:26:23.052Z,88.34
2022-10-22T04:28:53.898Z,88.34
2022-10-22T04:31:26.055Z,88.52
2022-10-22T04:33:56.396Z,88.64
2022-10-22T04:36:26.928Z,88.46
2022-10-22T04:38:59.459Z,88.56
2022-10-22T04:41:31.332Z,88.51
2022-10-22T04:44:00.672Z,88.47
2022-10-22T04:46:32.407Z,88.45
2022-10-22T04:49:03.495Z,88.63
2022-10-22T04:51:32.930Z,88.67
2022-10-22T04:54:03.287Z,88.77
2022-10-22T04:56:33.532Z,88.68
2022-10-22T04:59:05.378Z,88.75
2022-10-22T05:01:40.184Z,88.74
2022-10-22T05:04:15.418Z,88.51
2022-10-22T05:06:45.331Z,88.73
2022-10-22T05:09:18.514Z,88.50
2022-10-22T05:11:50.537Z,88.43
2022-10-22T05:14:22.171Z,88.18
2022-10-22T05:16:52.376Z,88.22
2022-10-22T05:19:24.126Z,88.06
2022-10-22T05:21:53.184Z,88.21
2022-10-22T05:24:23.640Z,88.07
2022-10-22T05:26:53.251Z,88.16
2022-10-22T05:29:22.775Z,88.12
2022-10-22T05:31:51.926Z,88.06
2022-10-22T05:34:21.259Z,87.93
2022-10-22T05:36:50.046Z,87.78
2022-10-22T05:39:18.881Z,87.73
2022-10-22T05:41:49.036Z,87.65
2022-10-22T05:44:17.841Z,87.59
2022-10-22T05:46:46.920Z,87.66
2022-10-22T05:49:17.126Z,87.41
2022-10-22T05:51:45.956Z,87.42
2022-10-22T05:54:20.731Z,87.51
2022-10-22T05:56:51.161Z,87.39
2022-10-22T05:59:19.986Z,87.45
2022-10-22T06:01:48.824Z,87.40
2022-10-22T06:04:18.082Z,87.53
2022-10-22T06:06:48.954Z,87.35
2022-10-22T06:09:23.640Z,87.51
2022-10-22T06:11:57.408Z,87.60
2022-10-22T06:14:27.453Z,87.39
2022-10-22T06:16:57.615Z,88.22
2022-10-22T06:19:28.172Z,87.67
2022-10-22T06:21:57.956Z,87.40
2022-10-22T06:24:27.216Z,87.26
2022-10-22T06:26:57.650Z,87.18
2022-10-22T06:29:32.993Z,87.11
2022-10-22T06:32:03.703Z,87.03
2022-10-22T06:34:35.401Z,87.06
2022-10-22T06:37:11.558Z,87.05
2022-10-22T06:39:40.601Z,87.09
2022-10-22T06:42:13.819Z,86.82
2022-10-22T06:44:42.915Z,86.97
2022-10-22T06:47:12.120Z,86.86
2022-10-22T06:49:42.738Z,86.79
2022-10-22T06:52:13.725Z,86.61
2022-10-22T06:54:43.762Z,86.40
2022-10-22T06:57:13.919Z,86.30
2022-10-22T06:59:42.718Z,86.34
2022-10-22T07:02:11.717Z,86.33
2022-10-22T07:04:40.505Z,86.30
2022-10-22T07:07:09.454Z,86.42
2022-10-22T07:09:39.422Z,86.54
2022-10-22T07:12:08.720Z,86.53
2022-10-22T07:14:39.051Z,86.34
2022-10-22T07:17:07.834Z,85.77
2022-10-22T07:19:36.608Z,85.81
2022-10-22T07:22:05.528Z,85.76
2022-10-22T07:24:34.278Z,85.59
2022-10-22T07:27:05.066Z,85.53
2022-10-22T07:29:44.631Z,85.22
2022-10-22T07:32:13.728Z,85.31
2022-10-22T07:34:43.876Z,85.41
2022-10-22T07:37:13.026Z,85.42
2022-10-22T07:39:41.760Z,85.38
2022-10-22T07:42:10.510Z,85.35
2022-10-22T07:44:42.884Z,85.13
2022-10-22T07:47:12.029Z,85.02
2022-10-22T07:49:40.895Z,84.92
2022-10-22T07:52:09.777Z,84.96
2022-10-22T07:54:38.488Z,84.97
2022-10-22T07:57:07.231Z,84.80
2022-10-22T07:59:36.006Z,84.79
2022-10-22T08:02:06.519Z,84.62
2022-10-22T08:04:35.361Z,84.40
2022-10-22T08:07:04.072Z,84.17
2022-10-22T08:09:32.927Z,84.09
2022-10-22T08:12:01.887Z,84.11
2022-10-22T08:14:31.398Z,84.00
2022-10-22T08:17:00.258Z,84.12
2022-10-22T08:19:32.514Z,84.08
2022-10-22T08:22:01.305Z,83.94
2022-10-22T08:24:30.338Z,83.70
2022-10-22T08:26:59.015Z,83.61
2022-10-22T08:29:28.127Z,83.77
2022-10-22T08:31:56.840Z,83.77
2022-10-22T08:34:25.477Z,83.79
2022-10-22T08:36:55.747Z,83.80
2022-10-22T08:39:24.932Z,83.73
2022-10-22T08:42:14.379Z,83.49
2022-10-22T08:45:09.910Z,83.21
2022-10-22T08:48:05.670Z,83.25
2022-10-22T08:50:39.807Z,83.51
2022-10-22T08:53:16.547Z,82.95
2022-10-22T08:55:47.121Z,82.65
2022-10-22T08:58:27.043Z,82.36
2022-10-22T09:01:03.931Z,82.39
2022-10-22T09:03:44.184Z,82.03
2022-10-22T09:06:21.055Z,82.04
2022-10-22T09:08:57.979Z,82.20
2022-10-22T09:11:32.287Z,82.00
2022-10-22T09:14:03.446Z,81.87
2022-10-22T09:16:40.473Z,82.23
2022-10-22T09:19:25.126Z,81.73
2022-10-22T09:22:10.178Z,81.91
2022-10-22T09:24:45.418Z,81.80
2022-10-22T09:27:17.915Z,81.46
2022-10-22T09:29:49.464Z,81.56
2022-10-22T09:32:19.601Z,81.59
2022-10-22T09:34:50.794Z,81.54
2022-10-22T09:37:27.172Z,81.42
2022-10-22T09:40:00.178Z,81.39
2022-10-22T09:42:28.987Z,81.51
2022-10-22T09:45:01.009Z,81.43
2022-10-22T09:47:43.503Z,81.25
2022-10-22T09:50:31.563Z,81.20
2022-10-22T09:53:06.523Z,81.29
2022-10-22T09:55:40.201Z,81.61
2022-10-22T09:58:14.936Z,81.62
2022-10-22T10:00:48.959Z,81.13
2022-10-22T10:03:20.043Z,81.24
2022-10-22T10:05:51.628Z,81.02
2022-10-22T10:08:20.939Z,80.70
2022-10-22T10:10:55.727Z,80.78
2022-10-22T10:13:43.106Z,80.54
2022-10-22T10:16:31.793Z,80.43
2022-10-22T10:19:21.345Z,80.66
2022-10-22T10:22:03.752Z,80.52
2022-10-22T10:24:57.083Z,80.43
2022-10-22T10:27:36.515Z,80.46
2022-10-22T10:30:14.098Z,80.06
2022-10-22T10:33:16.958Z,80.06
2022-10-22T10:35:59.572Z,80.04
2022-10-22T10:38:47.135Z,80.11
2022-10-22T10:41:27.047Z,80.17
2022-10-22T10:44:45.214Z,80.04
2022-10-22T10:47:51.571Z,79.70
2022-10-22T10:50:29.983Z,79.61
2022-10-22T10:53:14.926Z,79.28
2022-10-22T10:56:00.904Z,79.24
2022-10-22T10:58:48.274Z,79.22
2022-10-22T11:01:34.071Z,79.58
2022-10-22T11:04:48.344Z,79.76
2022-10-22T11:07:34.117Z,80.00
2022-10-22T11:10:15.190Z,79.97
2022-10-22T11:12:48.940Z,79.81
2022-10-22T11:15:28.749Z,79.69
2022-10-22T11:18:09.681Z,79.73
2022-10-22T11:20:51.687Z,79.64
2022-10-22T11:23:30.433Z,79.47
2022-10-22T11:26:01.748Z,79.56
2022-10-22T11:28:39.079Z,79.33
2022-10-22T11:31:16.909Z,79.38
2022-10-22T11:34:04.705Z,79.36
2022-10-22T11:36:47.231Z,79.27
2022-10-22T11:39:39.078Z,79.19
2022-10-22T11:42:12.590Z,79.36
2022-10-22T11:47:29.093Z,79.63
2022-10-22T11:50:18.195Z,79.74
2022-10-22T11:53:07.940Z,79.47
2022-10-22T11:55:49.598Z,79.64
2022-10-22T11:58:42.384Z,79.64
2022-10-22T12:01:30.750Z,79.65
2022-10-22T12:04:22.022Z,79.99
2022-10-22T12:07:00.457Z,79.95
2022-10-22T12:09:32.906Z,79.97
2022-10-22T12:12:15.014Z,79.76
2022-10-22T12:14:57.526Z,79.93
2022-10-22T12:17:29.306Z,79.80
2022-10-22T12:20:08.451Z,79.82
2022-10-22T12:22:40.670Z,79.78
2022-10-22T12:25:21.563Z,79.95
2022-10-22T12:27:54.890Z,79.99
2022-10-22T12:30:26.824Z,80.07
2022-10-22T12:32:58.658Z,80.13
2022-10-22T12:35:31.515Z,80.19
2022-10-22T12:38:06.324Z,80.26
2022-10-22T12:40:36.972Z,80.22
2022-10-22T12:43:13.981Z,80.17
2022-10-22T12:45:46.172Z,80.32
2022-10-22T12:48:20.844Z,80.20
2022-10-22T12:50:55.102Z,80.06
2022-10-22T12:53:31.034Z,80.14
2022-10-22T12:56:06.730Z,80.08
2022-10-22T12:58:42.181Z,80.14
2022-10-22T13:01:14.275Z,80.18
2022-10-22T13:03:46.759Z,80.18
2022-10-22T13:06:25.995Z,80.25
2022-10-22T13:09:14.457Z,80.14
2022-10-22T13:11:51.409Z,80.32
2022-10-22T13:14:28.692Z,80.52
2022-10-22T13:17:14.903Z,80.61
2022-10-22T13:20:05.357Z,80.65
2022-10-22T13:22:37.070Z,81.14
2022-10-22T13:25:24.079Z,81.01
2022-10-22T13:27:56.930Z,81.12
2022-10-22T13:30:28.617Z,81.26
2022-10-22T13:33:00.433Z,81.11
2022-10-22T13:35:33.336Z,81.39
2022-10-22T13:38:02.413Z,81.43
2022-10-22T13:40:32.562Z,81.42
2022-10-22T13:43:01.302Z,81.40
2022-10-22T13:45:30.069Z,81.45
2022-10-22T13:47:58.930Z,81.40
2022-10-22T13:50:27.722Z,81.62
2022-10-22T13:53:00.150Z,81.49
2022-10-22T13:55:32.017Z,81.66
2022-10-22T13:58:11.219Z,81.68
2022-10-22T14:00:42.397Z,81.71
2022-10-22T14:03:14.174Z,81.68
2022-10-22T14:05:43.483Z,81.81
2022-10-22T14:08:15.350Z,81.88
2022-10-22T14:10:45.600Z,81.90
2022-10-22T14:13:15.359Z,82.35
2022-10-22T14:15:45.308Z,82.33
2022-10-22T14:18:24.218Z,82.46
2022-10-22T14:20:57.301Z,82.47
2022-10-22T14:23:29.249Z,82.51
2022-10-22T14:26:01.084Z,82.46
2022-10-22T14:28:34.128Z,82.41
2022-10-22T14:31:06.283Z,82.49
2022-10-22T14:33:35.851Z,82.37
2022-10-22T14:36:04.657Z,82.55
2022-10-22T14:38:33.462Z,82.56
2022-10-22T14:41:03.771Z,82.47
2022-10-22T14:43:32.865Z,82.58
2022-10-22T14:46:01.737Z,82.50
2022-10-22T14:48:30.470Z,82.45
2022-10-22T14:50:59.331Z,82.15
2022-10-22T14:53:28.117Z,81.91
2022-10-22T14:55:59.673Z,81.73
2022-10-22T14:58:30.103Z,81.41
2022-10-22T15:00:58.833Z,81.23
2022-10-22T15:03:27.665Z,81.15
2022-10-22T15:05:56.512Z,80.91
2022-10-22T15:08:27.186Z,80.72
2022-10-22T15:11:00.855Z,80.77
2022-10-22T15:13:32.735Z,80.57
2022-10-22T15:16:02.484Z,80.52
2022-10-22T15:18:31.294Z,80.57
2022-10-22T15:21:02.409Z,80.39
2022-10-22T15:23:31.643Z,80.38
2022-10-22T15:26:00.689Z,80.49
2022-10-22T15:28:31.028Z,80.71
2022-10-22T15:31:02.138Z,80.53
2022-10-22T15:33:31.238Z,80.74
2022-10-22T15:36:00.660Z,80.64
2022-10-22T15:41:05.560Z,80.87
2022-10-22T15:43:37.168Z,80.72
2022-10-22T15:46:16.156Z,80.85
2022-10-22T15:48:45.787Z,80.88
2022-10-22T15:51:17.363Z,80.88
2022-10-22T15:53:51.831Z,81.10
2022-10-22T15:56:20.927Z,81.22
2022-10-22T15:58:55.686Z,81.12
2022-10-22T16:01:25.669Z,81.09
2022-10-22T16:04:00.453Z,81.34
2022-10-22T16:06:31.339Z,81.34
2022-10-22T16:09:03.071Z,81.33
2022-10-22T16:11:33.001Z,81.56
2022-10-22T16:14:04.058Z,81.70
2022-10-22T16:16:36.623Z,81.45
2022-10-22T16:19:06.189Z,81.60
2022-10-22T16:21:35.315Z,81.88
2022-10-22T16:24:06.280Z,82.00
2022-10-22T16:26:36.226Z,82.13
2022-10-22T16:29:08.558Z,81.97
2022-10-22T16:31:37.801Z,81.91
2022-10-22T16:34:07.205Z,81.86
2022-10-22T16:36:36.570Z,82.08
2022-10-22T16:39:06.464Z,82.48
2022-10-22T16:41:37.566Z,82.05
2022-10-22T16:44:09.631Z,82.27
2022-10-22T16:46:39.177Z,82.52
2022-10-22T16:49:09.334Z,82.33
2022-10-22T16:51:38.475Z,82.67
2022-10-22T16:54:11.341Z,82.89
2022-10-22T16:56:41.774Z,82.95
2022-10-22T16:59:12.341Z,83.09
2022-10-22T17:01:41.685Z,83.04
2022-10-22T17:04:11.441Z,83.20
2022-10-22T17:06:41.190Z,83.22
2022-10-22T17:09:12.805Z,83.32
2022-10-22T17:11:42.650Z,83.53
2022-10-22T17:14:15.686Z,83.45
2022-10-22T17:16:49.082Z,83.48
2022-10-22T17:19:18.449Z,83.54
2022-10-22T17:21:48.972Z,83.38
2022-10-22T17:24:18.394Z,83.47
2022-10-22T17:26:50.805Z,83.54
2022-10-22T17:29:22.565Z,83.52
2022-10-22T17:31:52.854Z,83.37
2022-10-22T17:34:23.004Z,83.27
2022-10-22T17:36:55.679Z,83.25
2022-10-22T17:39:25.213Z,83.12
2022-10-22T17:41:54.758Z,83.14
2022-10-22T17:44:25.792Z,83.14
2022-10-22T17:46:55.312Z,83.05
2022-10-22T17:49:27.172Z,82.98
2022-10-22T17:54:34.209Z,82.80
2022-10-22T17:57:03.638Z,82.69
2022-10-22T17:59:34.871Z,82.65
2022-10-22T18:02:04.764Z,82.64
2022-10-22T18:04:38.796Z,82.54
2022-10-22T18:07:11.492Z,82.50
2022-10-22T18:09:43.141Z,82.16
2022-10-22T18:12:14.457Z,82.17
2022-10-22T18:14:45.545Z,82.15
2022-10-22T18:19:50.734Z,82.02
2022-10-22T18:22:20.304Z,81.92
2022-10-22T18:24:49.644Z,81.84
2022-10-22T18:27:19.044Z,81.86
2022-10-22T18:29:55.804Z,81.87
2022-10-22T18:32:25.247Z,81.91
2022-10-22T18:34:57.105Z,81.98
2022-10-22T18:37:26.973Z,81.90
2022-10-22T18:39:56.284Z,81.80
2022-10-22T18:42:28.858Z,81.86
2022-10-22T18:45:02.936Z,81.89
2022-10-22T18:47:35.152Z,81.83
2022-10-22T18:50:05.155Z,81.71
2022-10-22T18:52:34.672Z,81.56
2022-10-22T18:55:04.888Z,81.71
2022-10-22T18:57:35.704Z,81.49
2022-10-22T19:00:11.073Z,81.58
2022-10-22T19:02:40.578Z,81.59
2022-10-22T19:05:11.262Z,81.61
2022-10-22T19:07:41.321Z,81.65
2022-10-22T19:10:11.567Z,81.52
2022-10-22T19:12:41.340Z,81.66
2022-10-22T19:15:14.374Z,81.75
2022-10-22T19:17:44.012Z,81.63
2022-10-22T19:20:14.563Z,81.68
2022-10-22T19:22:44.208Z,81.80
2022-10-22T19:25:13.995Z,81.61
2022-10-22T19:27:43.663Z,81.68
2022-10-22T19:30:16.164Z,81.70
2022-10-22T19:32:50.313Z,81.84
2022-10-22T19:35:21.032Z,81.90
2022-10-22T19:37:52.367Z,81.90
2022-10-22T19:40:26.018Z,81.98
2022-10-22T19:42:55.433Z,82.01
2022-10-22T19:45:26.394Z,82.07
2022-10-22T19:47:55.559Z,82.21
2022-10-22T19:50:25.061Z,82.29
2022-10-22T19:52:54.603Z,82.31
2022-10-22T19:55:23.940Z,82.36
2022-10-22T19:57:53.305Z,82.39
2022-10-22T20:00:28.535Z,82.36
2022-10-22T20:02:57.700Z,82.46
2022-10-22T20:05:27.069Z,82.75
2022-10-22T20:07:59.071Z,82.76
2022-10-22T20:10:30.945Z,82.77
2022-10-22T20:13:00.420Z,82.76
2022-10-22T20:15:34.579Z,82.76
2022-10-22T20:18:03.934Z,82.86
2022-10-22T20:20:34.458Z,82.95
2022-10-22T20:23:03.792Z,83.14
2022-10-22T20:25:35.279Z,83.16
2022-10-22T20:28:04.514Z,83.03
2022-10-22T20:30:35.326Z,83.10
2022-10-22T20:33:04.505Z,83.45
2022-10-22T20:35:33.727Z,83.48
2022-10-22T20:38:02.993Z,83.82
2022-10-22T20:40:32.521Z,84.03
2022-10-22T20:43:02.384Z,84.03
2022-10-22T20:45:31.599Z,83.99
2022-10-22T20:48:03.068Z,84.12
2022-10-22T20:50:32.814Z,84.19
2022-10-22T20:53:01.667Z,84.33
2022-10-22T20:55:31.255Z,84.31
2022-10-22T20:58:00.287Z,84.20
2022-10-22T21:00:29.494Z,84.11
2022-10-22T21:02:58.298Z,84.00
2022-10-22T21:05:28.711Z,84.03
2022-10-22T21:07:58.539Z,83.83
2022-10-22T21:10:32.278Z,83.78
2022-10-22T21:13:01.857Z,83.82
2022-10-22T21:15:30.477Z,83.78
2022-10-22T21:17:59.499Z,83.65
2022-10-22T21:20:32.876Z,83.76
2022-10-22T21:23:01.823Z,83.62
2022-10-22T21:25:30.550Z,83.52
2022-10-22T21:27:59.501Z,83.55
2022-10-22T21:30:28.292Z,83.54
2022-10-22T21:32:58.149Z,83.47
2022-10-22T21:35:27.115Z,83.50
2022-10-22T21:37:57.187Z,83.52
2022-10-22T21:40:27.615Z,83.48
2022-10-22T21:42:56.962Z,83.49
2022-10-22T21:45:25.932Z,83.34
2022-10-22T21:47:54.703Z,83.42
2022-10-22T21:50:23.401Z,83.41
2022-10-22T21:52:52.626Z,83.54
2022-10-22T21:55:22.876Z,83.44
2022-10-22T21:57:51.541Z,83.39
2022-10-22T22:00:23.074Z,83.48
2022-10-22T22:02:52.928Z,83.47
2022-10-22T22:05:21.905Z,83.47
2022-10-22T22:07:50.629Z,83.51
2022-10-22T22:10:19.570Z,83.60
2022-10-22T22:12:53.934Z,83.47
2022-10-22T22:15:23.711Z,83.57
2022-10-22T22:17:52.385Z,83.66
2022-10-22T22:20:21.200Z,83.58
2022-10-22T22:22:50.146Z,83.55
2022-10-22T22:25:19.052Z,83.59
2022-10-22T22:27:49.228Z,83.57
2022-10-22T22:30:18.506Z,83.70
2022-10-22T22:32:47.327Z,83.65
2022-10-22T22:35:16.182Z,83.66
2022-10-22T22:37:44.976Z,83.71
2022-10-22T22:40:13.983Z,83.66
2022-10-22T22:42:42.811Z,83.64
2022-10-22T22:45:13.203Z,83.78
2022-10-22T22:47:42.151Z,83.89
2022-10-22T22:50:11.314Z,83.97
2022-10-22T22:52:40.291Z,83.90
2022-10-22T22:55:10.658Z,83.96
2022-10-22T22:57:40.738Z,84.03
2022-10-22T23:00:14.384Z,83.95
2022-10-22T23:02:43.451Z,83.95
2022-10-22T23:05:12.552Z,83.96
2022-10-22T23:07:41.229Z,84.01
2022-10-22T23:10:10.922Z,84.00
2022-10-22T23:12:40.661Z,84.19
2022-10-22T23:15:10.517Z,84.12
2022-10-22T23:17:40.622Z,84.52
2022-10-22T23:20:11.070Z,84.32
2022-10-22T23:22:40.162Z,84.36
2022-10-22T23:25:10.960Z,84.42
2022-10-22T23:27:41.717Z,84.12
2022-10-22T23:30:12.657Z,84.53
2022-10-22T23:32:43.202Z,84.59
2022-10-22T23:35:12.436Z,84.53
2022-10-22T23:37:41.852Z,84.65
2022-10-22T23:40:12.520Z,84.67
2022-10-22T23:42:44.248Z,84.85
2022-10-22T23:45:13.612Z,84.93
2022-10-22T23:47:44.315Z,84.94
2022-10-22T23:50:13.994Z,84.98
2022-10-22T23:52:43.606Z,85.06
2022-10-22T23:55:13.159Z,85.19
2022-10-22T23:57:41.970Z,85.27
